createdAt,value
2023-11-25T00:02:02.165Z,1.47
2023-11-25T00:04:29.358Z,1.20
2023-11-25T00:06:56.754Z,1.43
2023-11-25T00:09:25.473Z,1.90
2023-11-25T00:11:52.581Z,1.20
2023-11-25T00:14:19.688Z,1.00
2023-11-25T00:16:47.172Z,1.10
2023-11-25T00:19:15.323Z,0.87
2023-11-25T00:21:42.474Z,0.70
2023-11-25T00:24:09.735Z,0.60
2023-11-25T00:26:37.328Z,0.70
2023-11-25T00:29:04.816Z,0.50
2023-11-25T00:31:31.941Z,0.57
2023-11-25T00:33:59.810Z,0.50
2023-11-25T00:36:27.186Z,0.50
2023-11-25T00:38:54.314Z,0.50
2023-11-25T00:41:21.439Z,0.60
2023-11-25T00:43:48.830Z,0.50
2023-11-25T00:46:16.033Z,0.60
2023-11-25T00:48:45.236Z,0.50
2023-11-25T00:51:12.365Z,0.60
2023-11-25T00:53:39.834Z,0.60
2023-11-25T00:56:07.532Z,0.60
2023-11-25T00:58:34.988Z,0.70
2023-11-25T01:01:02.392Z,0.80
2023-11-25T01:03:30.219Z,0.80
2023-11-25T01:05:57.833Z,1.00
2023-11-25T01:08:27.342Z,0.93
2023-11-25T01:10:54.496Z,0.90
2023-11-25T01:13:21.721Z,0.60
2023-11-25T01:15:49.254Z,0.80
2023-11-25T01:18:18.082Z,0.90
2023-11-25T01:20:45.946Z,0.80
2023-11-25T01:23:13.700Z,0.93
2023-11-25T01:25:40.933Z,1.07
2023-11-25T01:28:08.383Z,0.80
2023-11-25T01:30:38.763Z,0.80
2023-11-25T01:33:07.912Z,0.60
2023-11-25T01:35:35.556Z,1.30
2023-11-25T01:38:02.895Z,2.60
2023-11-25T01:40:30.817Z,1.30
2023-11-25T01:42:59.156Z,1.60
2023-11-25T01:45:29.511Z,1.20
2023-11-25T01:47:58.175Z,0.97
2023-11-25T01:50:26.264Z,0.90
2023-11-25T01:52:54.731Z,0.90
2023-11-25T01:55:23.296Z,1.00
2023-11-25T01:57:50.682Z,1.33
2023-11-25T02:00:19.266Z,0.87
2023-11-25T02:02:50.742Z,1.20
2023-11-25T02:05:18.672Z,0.93
2023-11-25T02:07:46.482Z,1.00
2023-11-25T02:10:13.882Z,1.17
2023-11-25T02:12:41.313Z,1.03
2023-11-25T02:15:12.892Z,1.20
2023-11-25T02:17:42.852Z,1.50
2023-11-25T02:20:11.829Z,1.10
2023-11-25T02:22:39.165Z,1.30
2023-11-25T02:25:08.644Z,1.50
2023-11-25T02:27:36.000Z,1.23
2023-11-25T02:30:09.520Z,1.17
2023-11-25T02:32:37.028Z,1.30
2023-11-25T02:35:04.813Z,1.30
2023-11-25T02:37:31.952Z,1.27
2023-11-25T02:39:59.147Z,1.40
2023-11-25T02:42:27.390Z,1.60
2023-11-25T02:44:56.945Z,1.60
2023-11-25T02:47:24.710Z,1.40
2023-11-25T02:49:52.689Z,1.20
2023-11-25T02:52:20.810Z,1.20
2023-11-25T02:54:48.786Z,1.03
2023-11-25T02:57:20.273Z,1.10
2023-11-25T02:59:48.294Z,1.20
2023-11-25T03:02:17.222Z,1.50
2023-11-25T03:04:46.729Z,0.90
2023-11-25T03:07:14.968Z,1.60
2023-11-25T03:09:43.769Z,1.20
2023-11-25T03:12:11.099Z,1.00
2023-11-25T03:14:38.241Z,0.90
2023-11-25T03:17:05.484Z,1.07
2023-11-25T03:19:33.443Z,0.80
2023-11-25T03:22:01.662Z,1.00
2023-11-25T03:24:29.113Z,1.20
2023-11-25T03:26:57.601Z,0.90
2023-11-25T03:29:26.074Z,1.30
2023-11-25T03:31:53.319Z,1.23
2023-11-25T03:34:22.637Z,1.40
2023-11-25T03:36:49.803Z,0.87
2023-11-25T03:39:17.029Z,1.37
2023-11-25T03:41:44.219Z,1.00
2023-11-25T03:44:11.596Z,0.90
2023-11-25T03:46:42.924Z,1.60
2023-11-25T03:49:11.350Z,1.13
2023-11-25T03:51:38.494Z,0.80
2023-11-25T03:54:05.702Z,1.00
2023-11-25T03:56:32.818Z,1.30
2023-11-25T03:58:59.932Z,1.10
2023-11-25T04:01:27.665Z,0.83
2023-11-25T04:03:54.893Z,0.80
2023-11-25T04:06:22.040Z,1.40
2023-11-25T04:08:50.018Z,2.50
2023-11-25T04:11:19.066Z,0.90
2023-11-25T04:13:46.192Z,1.30
2023-11-25T04:16:13.394Z,0.90
2023-11-25T04:18:40.624Z,1.70
2023-11-25T04:21:08.221Z,1.13
2023-11-25T04:23:36.131Z,0.80
2023-11-25T04:26:03.823Z,1.20
2023-11-25T04:28:31.318Z,0.77
2023-11-25T04:30:59.834Z,1.03
2023-11-25T04:33:27.008Z,1.03
2023-11-25T04:35:54.048Z,1.30
2023-11-25T04:38:21.180Z,1.83
2023-11-25T04:40:48.369Z,2.20
2023-11-25T04:43:15.593Z,1.30
2023-11-25T04:45:42.704Z,1.40
2023-11-25T04:48:09.836Z,1.20
2023-11-25T04:50:37.015Z,1.83
2023-11-25T04:53:04.066Z,1.00
2023-11-25T04:55:32.957Z,0.97
2023-11-25T04:58:00.092Z,1.23
2023-11-25T05:00:27.324Z,1.50
2023-11-25T05:02:54.554Z,1.83
2023-11-25T05:05:23.001Z,2.03
2023-11-25T05:07:50.514Z,1.20
2023-11-25T05:10:24.128Z,1.80
2023-11-25T05:12:52.055Z,1.83
2023-11-25T05:15:19.637Z,2.43
2023-11-25T05:17:46.777Z,2.30
2023-11-25T05:20:17.787Z,1.73
2023-11-25T05:22:45.802Z,2.50
2023-11-25T05:25:17.012Z,2.40
2023-11-25T05:27:45.286Z,2.30
2023-11-25T05:30:14.979Z,2.37
2023-11-25T05:32:46.209Z,2.87
2023-11-25T05:35:14.909Z,3.07
2023-11-25T05:37:45.394Z,3.00
2023-11-25T05:40:15.401Z,3.13
2023-11-25T05:42:49.219Z,2.80
2023-11-25T05:45:18.920Z,4.10
2023-11-25T05:47:46.352Z,4.40
2023-11-25T05:50:13.536Z,4.90
2023-11-25T05:52:40.629Z,3.43
2023-11-25T05:55:07.856Z,4.77
2023-11-25T05:57:34.888Z,3.53
2023-11-25T06:00:02.927Z,4.73
2023-11-25T06:02:40.333Z,4.47
2023-11-25T06:05:08.398Z,3.87
2023-11-25T06:07:35.782Z,2.77
2023-11-25T06:10:04.815Z,3.03
2023-11-25T06:12:33.464Z,3.80
2023-11-25T06:15:00.712Z,3.73
2023-11-25T06:17:28.033Z,2.53
2023-11-25T06:19:55.516Z,2.40
2023-11-25T06:22:22.931Z,2.50
2023-11-25T06:24:50.176Z,2.30
2023-11-25T06:27:20.969Z,2.67
2023-11-25T06:29:48.662Z,2.90
2023-11-25T06:32:15.855Z,2.00
2023-11-25T06:34:43.174Z,1.97
2023-11-25T06:37:10.266Z,2.43
2023-11-25T06:39:38.078Z,2.43
2023-11-25T06:42:08.709Z,2.50
2023-11-25T06:44:35.840Z,2.40
2023-11-25T06:47:02.951Z,2.60
2023-11-25T06:49:30.159Z,3.17
2023-11-25T06:51:59.191Z,2.70
2023-11-25T06:54:26.389Z,2.67
2023-11-25T06:56:53.579Z,2.60
2023-11-25T06:59:20.975Z,2.30
2023-11-25T07:01:49.162Z,3.00
2023-11-25T07:04:16.370Z,2.17
2023-11-25T07:06:43.859Z,2.07
2023-11-25T07:09:10.930Z,2.00
2023-11-25T07:11:38.688Z,1.87
2023-11-25T07:14:06.717Z,1.80
2023-11-25T07:16:37.306Z,1.77
2023-11-25T07:19:06.375Z,1.47
2023-11-25T07:21:33.546Z,1.53
2023-11-25T07:24:00.966Z,1.40
2023-11-25T07:26:29.999Z,1.80
2023-11-25T07:28:57.455Z,1.50
2023-11-25T07:31:26.253Z,1.43
2023-11-25T07:33:55.676Z,1.37
2023-11-25T07:36:22.851Z,1.40
2023-11-25T07:38:49.958Z,1.47
2023-11-25T07:41:20.756Z,1.90
2023-11-25T07:43:47.972Z,1.50
2023-11-25T07:46:15.262Z,1.40
2023-11-25T07:48:42.421Z,1.50
2023-11-25T07:51:09.491Z,1.30
2023-11-25T07:53:37.497Z,1.50
2023-11-25T07:56:04.897Z,1.73
2023-11-25T07:58:32.192Z,1.07
2023-11-25T08:00:59.528Z,1.67
2023-11-25T08:03:26.900Z,1.30
2023-11-25T08:05:54.392Z,1.40
2023-11-25T08:08:22.027Z,1.77
2023-11-25T08:10:49.228Z,1.40
2023-11-25T08:13:19.555Z,1.73
2023-11-25T08:15:47.311Z,1.63
2023-11-25T08:18:17.173Z,1.03
2023-11-25T08:20:44.356Z,1.10
2023-11-25T08:23:11.550Z,1.33
2023-11-25T08:25:38.753Z,1.50
2023-11-25T08:28:06.006Z,1.10
2023-11-25T08:30:33.183Z,1.07
2023-11-25T08:33:01.154Z,0.97
2023-11-25T08:35:28.302Z,1.40
2023-11-25T08:37:55.390Z,1.27
2023-11-25T08:40:23.372Z,1.63
2023-11-25T08:42:51.186Z,1.00
2023-11-25T08:45:18.368Z,2.43
2023-11-25T08:47:45.820Z,1.00
2023-11-25T08:50:17.573Z,1.10
2023-11-25T08:52:47.502Z,1.30
2023-11-25T08:55:18.966Z,1.20
2023-11-25T08:57:47.206Z,1.43
2023-11-25T09:00:20.593Z,1.10
2023-11-25T09:02:52.271Z,1.17
2023-11-25T09:05:24.386Z,1.27
2023-11-25T09:07:53.586Z,1.30
2023-11-25T09:10:21.090Z,2.30
2023-11-25T09:12:48.217Z,1.10
2023-11-25T09:15:15.605Z,1.00
2023-11-25T09:17:42.884Z,0.90
2023-11-25T09:20:14.721Z,0.90
2023-11-25T09:22:45.272Z,0.77
2023-11-25T09:25:13.518Z,0.90
2023-11-25T09:27:45.438Z,0.90
2023-11-25T09:30:14.941Z,0.90
2023-11-25T09:32:43.050Z,0.93
2023-11-25T09:35:16.276Z,1.13
2023-11-25T09:37:45.138Z,1.43
2023-11-25T09:40:18.776Z,1.00
2023-11-25T09:42:48.291Z,0.80
2023-11-25T09:45:16.681Z,1.57
2023-11-25T09:47:45.424Z,1.47
2023-11-25T09:50:14.637Z,1.00
2023-11-25T09:53:08.500Z,1.17
2023-11-25T09:55:37.653Z,1.23
2023-11-25T09:58:07.800Z,1.57
2023-11-25T10:00:36.853Z,1.30
2023-11-25T10:03:08.653Z,1.23
2023-11-25T10:05:36.083Z,1.27
2023-11-25T10:08:05.542Z,1.60
2023-11-25T10:10:33.499Z,1.67
2023-11-25T10:13:01.967Z,1.83
2023-11-25T10:15:29.562Z,1.53
2023-11-25T10:17:57.017Z,1.50
2023-11-25T10:20:24.508Z,1.03
2023-11-25T10:22:58.725Z,1.53
2023-11-25T10:25:34.203Z,1.43
2023-11-25T10:28:01.600Z,1.57
2023-11-25T10:30:30.066Z,1.47
2023-11-25T10:32:59.597Z,2.00
2023-11-25T10:35:27.088Z,1.20
2023-11-25T10:37:54.681Z,1.20
2023-11-25T10:40:23.476Z,1.27
2023-11-25T10:42:51.105Z,2.20
2023-11-25T10:45:22.772Z,1.33
2023-11-25T10:47:51.001Z,1.63
2023-11-25T10:50:18.272Z,1.77
2023-11-25T10:52:47.626Z,1.77
2023-11-25T10:55:16.567Z,2.50
2023-11-25T10:57:47.259Z,1.10
2023-11-25T11:00:15.088Z,1.30
2023-11-25T11:02:56.387Z,2.73
2023-11-25T11:05:54.070Z,1.77
2023-11-25T11:08:35.160Z,1.70
2023-11-25T11:11:13.320Z,1.67
2023-11-25T11:13:52.396Z,1.13
2023-11-25T11:16:39.504Z,2.30
2023-11-25T11:19:09.221Z,2.13
2023-11-25T11:21:39.725Z,2.50
2023-11-25T11:24:09.736Z,1.70
2023-11-25T11:26:49.478Z,1.80
2023-11-25T11:29:29.953Z,2.07
2023-11-25T11:32:03.169Z,2.00
2023-11-25T11:34:37.700Z,2.37
2023-11-25T11:37:07.887Z,1.50
2023-11-25T11:39:39.175Z,2.40
2023-11-25T11:42:27.514Z,2.50
2023-11-25T11:45:19.042Z,2.50
2023-11-25T11:47:54.074Z,2.30
2023-11-25T11:50:32.716Z,2.50
2023-11-25T11:53:03.411Z,2.37
2023-11-25T11:55:37.673Z,2.13
2023-11-25T11:58:14.302Z,2.67
2023-11-25T12:01:03.882Z,2.27
2023-11-25T12:03:34.000Z,1.87
2023-11-25T12:06:01.894Z,2.37
2023-11-25T12:08:30.226Z,2.20
2023-11-25T12:10:57.778Z,2.97
2023-11-25T12:13:38.871Z,1.87
2023-11-25T12:16:07.593Z,2.20
2023-11-25T12:18:36.274Z,2.57
2023-11-25T12:21:06.102Z,1.90
2023-11-25T12:23:44.805Z,2.63
2023-11-25T12:26:24.117Z,2.13
2023-11-25T12:28:51.550Z,2.93
2023-11-25T12:31:18.792Z,2.00
2023-11-25T12:33:47.217Z,2.17
2023-11-25T12:36:15.599Z,2.73
2023-11-25T12:38:43.463Z,2.20
2023-11-25T12:41:14.117Z,2.73
2023-11-25T12:44:09.223Z,2.00
2023-11-25T12:46:40.599Z,2.10
2023-11-25T12:49:25.260Z,11.53
2023-11-25T12:51:53.803Z,6.47
2023-11-25T12:54:21.284Z,2.63
2023-11-25T12:56:58.291Z,2.13
2023-11-25T12:59:29.780Z,1.90
2023-11-25T13:02:13.235Z,2.07
2023-11-25T13:04:47.698Z,2.10
2023-11-25T13:07:35.747Z,2.00
2023-11-25T13:10:05.233Z,2.00
2023-11-25T13:12:34.049Z,2.50
2023-11-25T13:15:01.421Z,2.00
2023-11-25T13:17:29.473Z,1.63
2023-11-25T13:19:58.646Z,1.80
2023-11-25T13:22:26.103Z,2.30
2023-11-25T13:24:53.451Z,1.60
2023-11-25T13:27:20.628Z,1.63
2023-11-25T13:29:47.694Z,1.33
2023-11-25T13:32:17.794Z,1.50
2023-11-25T13:34:45.669Z,1.20
2023-11-25T13:37:13.658Z,2.27
2023-11-25T13:39:41.041Z,1.10
2023-11-25T13:42:08.882Z,1.80
2023-11-25T13:44:36.591Z,1.20
2023-11-25T13:47:04.249Z,1.33
2023-11-25T13:49:33.443Z,1.23
2023-11-25T13:52:01.627Z,1.37
2023-11-25T13:54:30.147Z,1.23
2023-11-25T13:56:57.793Z,1.50
2023-11-25T13:59:25.254Z,1.70
2023-11-25T14:01:52.681Z,2.43
2023-11-25T14:04:20.770Z,1.13
2023-11-25T14:06:51.606Z,1.20
2023-11-25T14:09:19.541Z,1.10
2023-11-25T14:11:47.140Z,1.27
2023-11-25T14:14:14.734Z,0.90
2023-11-25T14:16:52.489Z,1.77
2023-11-25T14:19:20.124Z,2.20
2023-11-25T14:21:47.328Z,1.50
2023-11-25T14:24:14.555Z,1.30
2023-11-25T14:26:41.865Z,1.70
2023-11-25T14:29:09.200Z,2.40
2023-11-25T14:31:36.414Z,2.87
2023-11-25T14:34:03.808Z,1.77
2023-11-25T14:36:31.570Z,1.30
2023-11-25T14:38:58.816Z,2.13
2023-11-25T14:41:26.781Z,1.50
2023-11-25T14:43:54.954Z,2.50
2023-11-25T14:46:23.143Z,1.97
2023-11-25T14:48:50.464Z,1.70
2023-11-25T14:51:17.812Z,1.50
2023-11-25T14:53:46.811Z,1.50
2023-11-25T14:56:14.139Z,1.23
2023-11-25T14:58:41.528Z,1.60
2023-11-25T15:01:08.975Z,1.47
2023-11-25T15:03:40.401Z,2.57
2023-11-25T15:06:08.677Z,1.53
2023-11-25T15:08:38.825Z,1.70
2023-11-25T15:11:07.048Z,1.43
2023-11-25T15:13:37.185Z,1.77
2023-11-25T15:16:04.943Z,1.73
2023-11-25T15:18:32.245Z,1.80
2023-11-25T15:21:02.778Z,1.80
2023-11-25T15:23:30.008Z,1.60
2023-11-25T15:25:57.481Z,2.33
2023-11-25T15:28:25.338Z,2.67
2023-11-25T15:30:53.055Z,2.83
2023-11-25T15:33:20.276Z,2.30
2023-11-25T15:35:47.515Z,2.90
2023-11-25T15:38:15.155Z,2.63
2023-11-25T15:40:42.712Z,3.00
2023-11-25T15:43:10.086Z,2.40
2023-11-25T15:45:37.278Z,2.90
2023-11-25T15:48:04.635Z,3.37
2023-11-25T15:50:36.000Z,3.23
2023-11-25T15:53:06.083Z,1.80
2023-11-25T15:55:34.734Z,1.67
2023-11-25T15:58:01.978Z,1.97
2023-11-25T16:00:29.202Z,1.57
2023-11-25T16:02:56.441Z,1.83
2023-11-25T16:05:24.233Z,2.20
2023-11-25T16:07:51.788Z,2.40
2023-11-25T16:10:19.015Z,2.60
2023-11-25T16:12:46.803Z,2.40
2023-11-25T16:15:16.055Z,2.13
2023-11-25T16:17:43.994Z,2.07
2023-11-25T16:20:16.865Z,2.53
2023-11-25T16:22:44.456Z,1.90
2023-11-25T16:25:11.932Z,1.83
2023-11-25T16:27:39.042Z,2.20
2023-11-25T16:30:07.622Z,1.63
2023-11-25T16:32:35.230Z,1.90
2023-11-25T16:35:02.530Z,2.30
2023-11-25T16:37:29.685Z,4.30
2023-11-25T16:39:59.167Z,3.00
2023-11-25T16:42:26.370Z,1.80
2023-11-25T16:44:53.418Z,2.33
2023-11-25T16:47:21.152Z,2.40
2023-11-25T16:49:49.061Z,2.10
2023-11-25T16:52:16.281Z,2.50
2023-11-25T16:54:43.371Z,1.87
2023-11-25T16:57:10.449Z,1.97
2023-11-25T16:59:37.564Z,2.60
2023-11-25T17:02:04.844Z,1.73
2023-11-25T17:04:32.179Z,2.13
2023-11-25T17:07:00.625Z,1.93
2023-11-25T17:09:31.218Z,1.70
2023-11-25T17:11:58.371Z,1.97
2023-11-25T17:14:25.564Z,2.27
2023-11-25T17:16:52.656Z,2.67
2023-11-25T17:19:21.659Z,2.20
2023-11-25T17:21:48.724Z,1.80
2023-11-25T17:24:16.968Z,2.08
2023-11-25T17:26:44.993Z,2.03
2023-11-25T17:29:13.365Z,1.70
2023-11-25T17:31:40.736Z,1.97
2023-11-25T17:34:08.071Z,1.90
2023-11-25T17:36:35.208Z,2.00
2023-11-25T17:39:02.290Z,1.87
2023-11-25T17:41:29.613Z,2.10
2023-11-25T17:43:58.686Z,2.10
2023-11-25T17:46:26.001Z,1.70
2023-11-25T17:48:54.180Z,1.63
2023-11-25T17:51:21.288Z,1.63
2023-11-25T17:53:48.532Z,2.50
2023-11-25T17:56:15.742Z,2.40
2023-11-25T17:58:42.908Z,1.80
2023-11-25T18:01:10.131Z,2.77
2023-11-25T18:03:37.591Z,2.50
2023-11-25T18:06:05.698Z,3.33
2023-11-25T18:08:33.048Z,2.93
2023-11-25T18:11:00.417Z,2.47
2023-11-25T18:13:27.720Z,3.03
2023-11-25T18:15:55.116Z,2.93
2023-11-25T18:18:22.855Z,3.27
2023-11-25T18:20:51.110Z,3.40
2023-11-25T18:23:18.315Z,3.90
2023-11-25T18:25:45.433Z,4.60
2023-11-25T18:28:12.490Z,4.63
2023-11-25T18:30:40.345Z,3.73
2023-11-25T18:33:09.100Z,4.50
2023-11-25T18:35:38.352Z,3.97
2023-11-25T18:38:06.932Z,4.00
2023-11-25T18:40:34.658Z,3.33
2023-11-25T18:43:02.682Z,4.03
2023-11-25T18:45:29.758Z,3.83
2023-11-25T18:47:56.953Z,3.43
2023-11-25T18:50:28.745Z,3.70
2023-11-25T18:52:56.404Z,4.23
2023-11-25T18:55:23.531Z,3.87
2023-11-25T18:57:50.593Z,4.70
2023-11-25T19:00:18.507Z,5.17
2023-11-25T19:02:46.132Z,3.60
2023-11-25T19:05:16.415Z,3.73
2023-11-25T19:07:45.755Z,1.87
2023-11-25T19:10:13.037Z,1.87
2023-11-25T19:12:40.787Z,1.57
2023-11-25T19:15:08.300Z,2.27
2023-11-25T19:17:39.277Z,1.60
2023-11-25T19:20:07.800Z,1.10
2023-11-25T19:22:35.048Z,1.33
2023-11-25T19:25:04.257Z,1.37
2023-11-25T19:27:31.393Z,1.83
2023-11-25T19:29:58.633Z,1.83
2023-11-25T19:32:25.998Z,2.70
2023-11-25T19:34:53.414Z,2.17
2023-11-25T19:37:20.527Z,2.17
2023-11-25T19:39:47.701Z,2.33
2023-11-25T19:42:14.909Z,2.33
2023-11-25T19:44:41.990Z,2.47
2023-11-25T19:47:09.301Z,3.17
2023-11-25T19:49:36.535Z,2.30
2023-11-25T19:52:04.918Z,2.73
2023-11-25T19:54:32.547Z,2.60
2023-11-25T19:56:59.840Z,2.73
2023-11-25T19:59:29.186Z,2.70
2023-11-25T20:01:57.164Z,2.47
2023-11-25T20:04:26.283Z,2.20
2023-11-25T20:06:56.950Z,2.17
2023-11-25T20:09:23.988Z,1.50
2023-11-25T20:11:54.173Z,1.93
2023-11-25T20:14:21.250Z,1.90
2023-11-25T20:16:48.603Z,1.63
2023-11-25T20:19:16.008Z,2.47
2023-11-25T20:21:43.133Z,1.37
2023-11-25T20:24:12.122Z,2.90
2023-11-25T20:26:40.332Z,1.60
2023-11-25T20:29:07.694Z,1.63
2023-11-25T20:31:34.958Z,1.50
2023-11-25T20:34:02.201Z,1.30
2023-11-25T20:36:29.603Z,2.23
2023-11-25T20:38:56.825Z,1.67
2023-11-25T20:41:25.285Z,2.03
2023-11-25T20:43:52.931Z,1.80
2023-11-25T20:46:21.868Z,1.70
2023-11-25T20:48:50.201Z,1.43
2023-11-25T20:51:23.447Z,2.13
2023-11-25T20:53:51.633Z,2.00
2023-11-25T20:56:19.472Z,2.20
2023-11-25T20:58:47.146Z,2.70
2023-11-25T21:01:15.435Z,2.80
2023-11-25T21:03:42.883Z,2.17
2023-11-25T21:06:11.169Z,2.20
2023-11-25T21:08:38.304Z,2.97
2023-11-25T21:11:06.006Z,1.90
2023-11-25T21:13:33.617Z,3.23
2023-11-25T21:16:01.299Z,2.27
2023-11-25T21:18:28.454Z,2.80
2023-11-25T21:20:55.582Z,3.17
2023-11-25T21:23:22.748Z,3.07
2023-11-25T21:25:49.860Z,3.17
2023-11-25T21:28:16.980Z,3.10
2023-11-25T21:30:44.890Z,2.40
2023-11-25T21:33:12.099Z,2.87
2023-11-25T21:35:39.246Z,3.20
2023-11-25T21:38:06.619Z,2.80
2023-11-25T21:40:33.728Z,3.33
2023-11-25T21:43:00.835Z,2.87
2023-11-25T21:45:27.945Z,3.10
2023-11-25T21:47:55.210Z,3.63
2023-11-25T21:50:22.470Z,3.40
2023-11-25T21:52:51.154Z,4.07
2023-11-25T21:55:18.566Z,4.07
2023-11-25T21:57:45.830Z,3.80
2023-11-25T22:00:16.753Z,4.53
2023-11-25T22:02:44.473Z,5.00
2023-11-25T22:05:12.234Z,3.50
2023-11-25T22:07:39.706Z,4.67
2023-11-25T22:10:21.507Z,4.47
2023-11-25T22:12:56.782Z,4.80
2023-11-25T22:15:24.062Z,4.80
2023-11-25T22:17:51.345Z,4.47
2023-11-25T22:20:18.619Z,4.43
2023-11-25T22:22:45.972Z,5.10
2023-11-25T22:25:15.474Z,4.63
2023-11-25T22:27:42.684Z,4.43
2023-11-25T22:30:12.870Z,5.07
2023-11-25T22:32:40.373Z,4.70
2023-11-25T22:35:08.113Z,5.03
2023-11-25T22:37:35.580Z,4.90
2023-11-25T22:40:02.858Z,5.20
2023-11-25T22:42:30.118Z,4.10
2023-11-25T22:44:57.218Z,3.17
2023-11-25T22:47:24.427Z,3.30
2023-11-25T22:49:51.791Z,3.73
2023-11-25T22:52:18.901Z,2.43
2023-11-25T22:54:46.213Z,2.87
2023-11-25T22:57:13.365Z,3.10
2023-11-25T22:59:40.609Z,3.00
2023-11-25T23:02:08.773Z,3.40
2023-11-25T23:04:36.019Z,2.70
2023-11-25T23:07:03.353Z,2.70
2023-11-25T23:09:30.576Z,2.83
2023-11-25T23:11:58.505Z,3.50
2023-11-25T23:14:25.739Z,2.33
2023-11-25T23:16:52.938Z,2.27
2023-11-25T23:19:23.300Z,1.90
2023-11-25T23:21:50.551Z,2.27
2023-11-25T23:24:18.976Z,1.90
2023-11-25T23:26:46.125Z,1.87
2023-11-25T23:29:13.290Z,2.50
2023-11-25T23:31:40.450Z,2.60
2023-11-25T23:34:07.711Z,2.00
2023-11-25T23:36:35.273Z,1.73
2023-11-25T23:39:02.452Z,1.60
2023-11-25T23:41:29.568Z,1.90
2023-11-25T23:43:56.761Z,1.37
2023-11-25T23:46:24.021Z,1.53
2023-11-25T23:48:51.299Z,1.47
2023-11-25T23:51:18.476Z,1.43
2023-11-25T23:53:46.568Z,2.20
2023-11-25T23:56:13.963Z,1.70
2023-11-25T23:58:41.099Z,1.57
